sensor_id;sensor_type;location;lat;lon;timestamp;temperature;humidity
67050;DHT22;53955;52.442;13.284;2022-12-18T00:02:11;0.20;0.20
67050;DHT22;53955;52.442;13.284;2022-12-18T00:04:38;0.20;0.20
67050;DHT22;53955;52.442;13.284;2022-12-18T00:07:06;0.20;0.20
67050;DHT22;53955;52.442;13.284;2022-12-18T00:09:33;0.20;0.20
67050;DHT22;53955;52.442;13.284;2022-12-18T00:11:59;0.20;0.20
67050;DHT22;53955;52.442;13.284;2022-12-18T00:14:26;0.20;0.20
67050;DHT22;53955;52.442;13.284;2022-12-18T00:16:53;0.20;0.20
67050;DHT22;53955;52.442;13.284;2022-12-18T00:19:19;0.20;0.20
67050;DHT22;53955;52.442;13.284;2022-12-18T00:21:46;0.20;0.20
67050;DHT22;53955;52.442;13.284;2022-12-18T00:24:14;0.20;0.20
67050;DHT22;53955;52.442;13.284;2022-12-18T00:26:40;0.20;0.20
67050;DHT22;53955;52.442;13.284;2022-12-18T00:29:10;0.20;0.20
67050;DHT22;53955;52.442;13.284;2022-12-18T00:31:39;0.20;0.20
67050;DHT22;53955;52.442;13.284;2022-12-18T00:34:05;0.20;0.20
67050;DHT22;53955;52.442;13.284;2022-12-18T00:36:33;0.20;0.20
67050;DHT22;53955;52.442;13.284;2022-12-18T00:39:02;0.20;0.20
67050;DHT22;53955;52.442;13.284;2022-12-18T00:41:31;0.20;0.20
67050;DHT22;53955;52.442;13.284;2022-12-18T00:44:17;0.20;0.20
67050;DHT22;53955;52.442;13.284;2022-12-18T00:46:45;0.20;0.20
67050;DHT22;53955;52.442;13.284;2022-12-18T00:49:11;0.20;0.20
67050;DHT22;53955;52.442;13.284;2022-12-18T00:51:38;0.20;0.20
67050;DHT22;53955;52.442;13.284;2022-12-18T00:54:05;0.20;0.20
67050;DHT22;53955;52.442;13.284;2022-12-18T00:56:35;0.20;0.20
67050;DHT22;53955;52.442;13.284;2022-12-18T00:59:02;0.20;0.20
67050;DHT22;53955;52.442;13.284;2022-12-18T01:01:28;0.20;0.20
67050;DHT22;53955;52.442;13.284;2022-12-18T01:03:55;0.20;0.20
67050;DHT22;53955;52.442;13.284;2022-12-18T01:06:24;0.20;0.20
67050;DHT22;53955;52.442;13.284;2022-12-18T01:08:51;0.20;0.20
67050;DHT22;53955;52.442;13.284;2022-12-18T01:11:19;0.20;0.20
67050;DHT22;53955;52.442;13.284;2022-12-18T01:13:47;0.20;0.20
67050;DHT22;53955;52.442;13.284;2022-12-18T01:16:15;0.20;0.20
67050;DHT22;53955;52.442;13.284;2022-12-18T01:18:42;0.20;0.20
67050;DHT22;53955;52.442;13.284;2022-12-18T01:21:10;0.20;0.20
67050;DHT22;53955;52.442;13.284;2022-12-18T01:23:37;0.20;0.20
67050;DHT22;53955;52.442;13.284;2022-12-18T01:26:06;0.20;0.20
67050;DHT22;53955;52.442;13.284;2022-12-18T01:28:32;0.20;0.20
67050;DHT22;53955;52.442;13.284;2022-12-18T01:31:15;0.20;0.20
67050;DHT22;53955;52.442;13.284;2022-12-18T01:33:42;0.20;0.20
67050;DHT22;53955;52.442;13.284;2022-12-18T01:36:14;0.20;0.20
67050;DHT22;53955;52.442;13.284;2022-12-18T01:38:41;0.20;0.20
67050;DHT22;53955;52.442;13.284;2022-12-18T01:41:08;0.20;0.20
67050;DHT22;53955;52.442;13.284;2022-12-18T01:43:47;0.20;0.20
67050;DHT22;53955;52.442;13.284;2022-12-18T01:46:16;0.20;0.20
67050;DHT22;53955;52.442;13.284;2022-12-18T01:48:45;0.20;0.20
67050;DHT22;53955;52.442;13.284;2022-12-18T01:51:13;0.20;0.20
67050;DHT22;53955;52.442;13.284;2022-12-18T01:53:41;0.20;0.20
67050;DHT22;53955;52.442;13.284;2022-12-18T01:56:08;0.20;0.20
67050;DHT22;53955;52.442;13.284;2022-12-18T01:58:43;0.20;0.20
67050;DHT22;53955;52.442;13.284;2022-12-18T02:01:12;0.20;0.20
67050;DHT22;53955;52.442;13.284;2022-12-18T02:03:42;0.20;0.20
67050;DHT22;53955;52.442;13.284;2022-12-18T02:06:13;0.20;0.20
67050;DHT22;53955;52.442;13.284;2022-12-18T02:08:45;0.20;0.20
67050;DHT22;53955;52.442;13.284;2022-12-18T02:11:21;0.20;0.20
67050;DHT22;53955;52.442;13.284;2022-12-18T02:13:53;0.20;0.20
67050;DHT22;53955;52.442;13.284;2022-12-18T02:16:30;0.20;0.20
67050;DHT22;53955;52.442;13.284;2022-12-18T02:19:03;0.20;0.20
67050;DHT22;53955;52.442;13.284;2022-12-18T02:21:40;0.20;0.20
67050;DHT22;53955;52.442;13.284;2022-12-18T02:24:18;0.20;0.20
67050;DHT22;53955;52.442;13.284;2022-12-18T02:26:55;0.20;0.20
67050;DHT22;53955;52.442;13.284;2022-12-18T02:29:24;0.20;0.20
67050;DHT22;53955;52.442;13.284;2022-12-18T02:31:54;0.20;0.20
67050;DHT22;53955;52.442;13.284;2022-12-18T02:34:32;0.20;0.20
67050;DHT22;53955;52.442;13.284;2022-12-18T02:37:03;0.20;0.20
67050;DHT22;53955;52.442;13.284;2022-12-18T02:39:33;0.20;0.20
67050;DHT22;53955;52.442;13.284;2022-12-18T02:42:01;0.20;0.20
67050;DHT22;53955;52.442;13.284;2022-12-18T02:44:33;0.20;0.20
67050;DHT22;53955;52.442;13.284;2022-12-18T02:46:59;0.20;0.20
67050;DHT22;53955;52.442;13.284;2022-12-18T02:49:31;0.20;0.20
67050;DHT22;53955;52.442;13.284;2022-12-18T02:52:07;0.20;0.20
67050;DHT22;53955;52.442;13.284;2022-12-18T02:54:48;0.20;0.20
67050;DHT22;53955;52.442;13.284;2022-12-18T02:57:22;0.20;0.20
67050;DHT22;53955;52.442;13.284;2022-12-18T02:59:58;0.20;0.20
67050;DHT22;53955;52.442;13.284;2022-12-18T03:02:29;0.20;0.20
67050;DHT22;53955;52.442;13.284;2022-12-18T03:05:05;0.20;0.20
67050;DHT22;53955;52.442;13.284;2022-12-18T03:07:37;0.20;0.20
67050;DHT22;53955;52.442;13.284;2022-12-18T03:10:09;0.20;0.20
67050;DHT22;53955;52.442;13.284;2022-12-18T03:12:42;0.20;0.20
67050;DHT22;53955;52.442;13.284;2022-12-18T03:15:14;0.20;0.20
67050;DHT22;53955;52.442;13.284;2022-12-18T03:17:46;0.20;0.20
67050;DHT22;53955;52.442;13.284;2022-12-18T03:20:19;0.20;0.20
67050;DHT22;53955;52.442;13.284;2022-12-18T03:22:49;0.20;0.20
67050;DHT22;53955;52.442;13.284;2022-12-18T03:25:18;0.20;0.20
67050;DHT22;53955;52.442;13.284;2022-12-18T03:27:49;0.20;0.20
67050;DHT22;53955;52.442;13.284;2022-12-18T03:30:17;0.20;0.20
67050;DHT22;53955;52.442;13.284;2022-12-18T03:32:47;0.20;0.20
67050;DHT22;53955;52.442;13.284;2022-12-18T03:35:20;0.20;0.20
67050;DHT22;53955;52.442;13.284;2022-12-18T03:37:48;0.20;0.20
67050;DHT22;53955;52.442;13.284;2022-12-18T03:40:15;0.20;0.20
67050;DHT22;53955;52.442;13.284;2022-12-18T03:42:48;0.20;0.20
67050;DHT22;53955;52.442;13.284;2022-12-18T03:45:22;0.20;0.20
67050;DHT22;53955;52.442;13.284;2022-12-18T03:47:59;0.20;0.20
67050;DHT22;53955;52.442;13.284;2022-12-18T03:50:35;0.20;0.20
67050;DHT22;53955;52.442;13.284;2022-12-18T03:53:18;0.20;0.20
67050;DHT22;53955;52.442;13.284;2022-12-18T03:55:48;0.20;0.20
67050;DHT22;53955;52.442;13.284;2022-12-18T03:58:19;0.20;0.20
67050;DHT22;53955;52.442;13.284;2022-12-18T04:00:48;0.20;0.20
67050;DHT22;53955;52.442;13.284;2022-12-18T04:03:17;0.20;0.20
67050;DHT22;53955;52.442;13.284;2022-12-18T04:05:48;0.20;0.20
67050;DHT22;53955;52.442;13.284;2022-12-18T04:08:16;0.20;0.20
67050;DHT22;53955;52.442;13.284;2022-12-18T04:10:43;0.20;0.20
67050;DHT22;53955;52.442;13.284;2022-12-18T04:13:10;0.20;0.20
67050;DHT22;53955;52.442;13.284;2022-12-18T04:15:38;0.20;0.20
67050;DHT22;53955;52.442;13.284;2022-12-18T04:18:05;0.20;0.20
67050;DHT22;53955;52.442;13.284;2022-12-18T04:20:32;0.20;0.20
67050;DHT22;53955;52.442;13.284;2022-12-18T04:22:59;0.20;0.20
67050;DHT22;53955;52.442;13.284;2022-12-18T04:25:25;0.20;0.20
67050;DHT22;53955;52.442;13.284;2022-12-18T04:27:52;0.20;0.20
67050;DHT22;53955;52.442;13.284;2022-12-18T04:30:18;0.20;0.20
67050;DHT22;53955;52.442;13.284;2022-12-18T04:32:46;0.20;0.20
67050;DHT22;53955;52.442;13.284;2022-12-18T04:35:13;0.20;0.20
67050;DHT22;53955;52.442;13.284;2022-12-18T04:37:39;0.20;0.20
67050;DHT22;53955;52.442;13.284;2022-12-18T04:40:07;0.20;0.20
67050;DHT22;53955;52.442;13.284;2022-12-18T04:42:34;0.20;0.20
67050;DHT22;53955;52.442;13.284;2022-12-18T04:45:00;0.20;0.20
67050;DHT22;53955;52.442;13.284;2022-12-18T04:47:27;0.20;0.20
67050;DHT22;53955;52.442;13.284;2022-12-18T04:49:55;0.20;0.20
67050;DHT22;53955;52.442;13.284;2022-12-18T04:52:21;0.20;0.20
67050;DHT22;53955;52.442;13.284;2022-12-18T04:54:48;0.20;0.20
67050;DHT22;53955;52.442;13.284;2022-12-18T04:57:15;0.20;0.20
67050;DHT22;53955;52.442;13.284;2022-12-18T04:59:43;0.20;0.20
67050;DHT22;53955;52.442;13.284;2022-12-18T05:02:10;0.20;0.20
67050;DHT22;53955;52.442;13.284;2022-12-18T05:04:36;0.20;0.20
67050;DHT22;53955;52.442;13.284;2022-12-18T05:07:04;0.20;0.20
67050;DHT22;53955;52.442;13.284;2022-12-18T05:09:31;0.20;0.20
67050;DHT22;53955;52.442;13.284;2022-12-18T05:11:57;0.20;0.20
67050;DHT22;53955;52.442;13.284;2022-12-18T05:14:24;0.20;0.20
67050;DHT22;53955;52.442;13.284;2022-12-18T05:16:52;0.20;0.20
67050;DHT22;53955;52.442;13.284;2022-12-18T05:19:19;0.20;0.20
67050;DHT22;53955;52.442;13.284;2022-12-18T05:21:45;0.20;0.20
67050;DHT22;53955;52.442;13.284;2022-12-18T05:24:13;0.20;0.20
67050;DHT22;53955;52.442;13.284;2022-12-18T05:26:40;0.20;0.20
67050;DHT22;53955;52.442;13.284;2022-12-18T05:29:07;0.20;0.20
67050;DHT22;53955;52.442;13.284;2022-12-18T05:31:33;0.20;0.20
67050;DHT22;53955;52.442;13.284;2022-12-18T05:34:00;0.20;0.20
67050;DHT22;53955;52.442;13.284;2022-12-18T05:36:26;0.20;0.20
67050;DHT22;53955;52.442;13.284;2022-12-18T05:38:53;0.20;0.20
67050;DHT22;53955;52.442;13.284;2022-12-18T05:41:21;0.20;0.20
67050;DHT22;53955;52.442;13.284;2022-12-18T05:43:47;0.20;0.20
67050;DHT22;53955;52.442;13.284;2022-12-18T05:46:15;0.20;0.20
67050;DHT22;53955;52.442;13.284;2022-12-18T05:48:43;0.20;0.20
67050;DHT22;53955;52.442;13.284;2022-12-18T05:51:12;0.20;0.20
67050;DHT22;53955;52.442;13.284;2022-12-18T05:53:40;0.20;0.20
67050;DHT22;53955;52.442;13.284;2022-12-18T05:56:08;0.20;0.20
67050;DHT22;53955;52.442;13.284;2022-12-18T05:58:36;0.20;0.20
67050;DHT22;53955;52.442;13.284;2022-12-18T06:01:08;0.20;0.20
67050;DHT22;53955;52.442;13.284;2022-12-18T06:03:35;0.20;0.20
67050;DHT22;53955;52.442;13.284;2022-12-18T06:06:02;0.20;0.20
67050;DHT22;53955;52.442;13.284;2022-12-18T06:08:29;0.20;0.20
67050;DHT22;53955;52.442;13.284;2022-12-18T06:10:55;0.20;0.20
67050;DHT22;53955;52.442;13.284;2022-12-18T06:13:22;0.20;0.20
67050;DHT22;53955;52.442;13.284;2022-12-18T06:15:50;0.20;0.20
67050;DHT22;53955;52.442;13.284;2022-12-18T06:18:17;0.20;0.20
67050;DHT22;53955;52.442;13.284;2022-12-18T06:20:43;0.20;0.20
67050;DHT22;53955;52.442;13.284;2022-12-18T06:23:10;0.20;0.20
67050;DHT22;53955;52.442;13.284;2022-12-18T06:25:38;0.20;0.20
67050;DHT22;53955;52.442;13.284;2022-12-18T06:28:05;0.20;0.20
67050;DHT22;53955;52.442;13.284;2022-12-18T06:30:32;0.20;0.20
67050;DHT22;53955;52.442;13.284;2022-12-18T06:33:00;0.20;0.20
67050;DHT22;53955;52.442;13.284;2022-12-18T06:35:26;0.20;0.20
67050;DHT22;53955;52.442;13.284;2022-12-18T06:37:53;0.20;0.20
67050;DHT22;53955;52.442;13.284;2022-12-18T06:40:20;0.20;0.20
67050;DHT22;53955;52.442;13.284;2022-12-18T06:42:46;0.20;0.20
67050;DHT22;53955;52.442;13.284;2022-12-18T06:45:16;0.20;0.20
67050;DHT22;53955;52.442;13.284;2022-12-18T06:47:42;0.20;0.20
67050;DHT22;53955;52.442;13.284;2022-12-18T06:50:11;0.20;0.20
67050;DHT22;53955;52.442;13.284;2022-12-18T06:52:38;0.20;0.20
67050;DHT22;53955;52.442;13.284;2022-12-18T06:55:08;0.20;0.20
67050;DHT22;53955;52.442;13.284;2022-12-18T06:57:34;0.20;0.20
67050;DHT22;53955;52.442;13.284;2022-12-18T07:00:02;0.20;0.20
67050;DHT22;53955;52.442;13.284;2022-12-18T07:02:30;0.20;0.20
67050;DHT22;53955;52.442;13.284;2022-12-18T07:04:56;0.20;0.20
67050;DHT22;53955;52.442;13.284;2022-12-18T07:07:24;0.20;0.20
67050;DHT22;53955;52.442;13.284;2022-12-18T07:09:51;0.20;0.20
67050;DHT22;53955;52.442;13.284;2022-12-18T07:12:18;0.20;0.20
67050;DHT22;53955;52.442;13.284;2022-12-18T07:14:44;0.20;0.20
67050;DHT22;53955;52.442;13.284;2022-12-18T07:17:11;0.20;0.20
67050;DHT22;53955;52.442;13.284;2022-12-18T07:19:38;0.20;0.20
67050;DHT22;53955;52.442;13.284;2022-12-18T07:22:04;0.20;0.20
67050;DHT22;53955;52.442;13.284;2022-12-18T07:24:33;0.20;0.20
67050;DHT22;53955;52.442;13.284;2022-12-18T07:27:00;0.20;0.20
67050;DHT22;53955;52.442;13.284;2022-12-18T07:29:27;0.20;0.20
67050;DHT22;53955;52.442;13.284;2022-12-18T07:31:53;0.20;0.20
67050;DHT22;53955;52.442;13.284;2022-12-18T07:34:20;0.20;0.20
67050;DHT22;53955;52.442;13.284;2022-12-18T07:36:47;0.20;0.20
67050;DHT22;53955;52.442;13.284;2022-12-18T07:39:13;0.20;0.20
67050;DHT22;53955;52.442;13.284;2022-12-18T07:41:42;0.20;0.20
67050;DHT22;53955;52.442;13.284;2022-12-18T07:44:11;0.20;0.20
67050;DHT22;53955;52.442;13.284;2022-12-18T07:46:38;0.20;0.20
67050;DHT22;53955;52.442;13.284;2022-12-18T07:49:05;0.20;0.20
67050;DHT22;53955;52.442;13.284;2022-12-18T07:51:31;0.20;0.20
67050;DHT22;53955;52.442;13.284;2022-12-18T07:53:58;0.20;0.20
67050;DHT22;53955;52.442;13.284;2022-12-18T07:56:24;0.20;0.20
67050;DHT22;53955;52.442;13.284;2022-12-18T07:58:52;0.20;0.20
67050;DHT22;53955;52.442;13.284;2022-12-18T08:01:19;0.20;0.20
67050;DHT22;53955;52.442;13.284;2022-12-18T08:03:46;0.20;0.20
67050;DHT22;53955;52.442;13.284;2022-12-18T08:06:12;0.20;0.20
67050;DHT22;53955;52.442;13.284;2022-12-18T08:08:39;0.20;0.20
67050;DHT22;53955;52.442;13.284;2022-12-18T08:11:07;0.20;0.20
67050;DHT22;53955;52.442;13.284;2022-12-18T08:13:34;0.20;0.20
67050;DHT22;53955;52.442;13.284;2022-12-18T08:16:03;0.20;0.20
67050;DHT22;53955;52.442;13.284;2022-12-18T08:18:34;0.20;0.20
67050;DHT22;53955;52.442;13.284;2022-12-18T08:21:08;0.20;0.20
67050;DHT22;53955;52.442;13.284;2022-12-18T08:23:34;0.20;0.20
67050;DHT22;53955;52.442;13.284;2022-12-18T08:26:01;0.20;0.20
67050;DHT22;53955;52.442;13.284;2022-12-18T08:28:27;0.20;0.20
67050;DHT22;53955;52.442;13.284;2022-12-18T08:30:54;0.20;0.20
67050;DHT22;53955;52.442;13.284;2022-12-18T08:33:22;0.20;0.20
67050;DHT22;53955;52.442;13.284;2022-12-18T08:35:48;0.20;0.20
67050;DHT22;53955;52.442;13.284;2022-12-18T08:38:15;0.20;0.20
67050;DHT22;53955;52.442;13.284;2022-12-18T08:40:42;0.20;0.20
67050;DHT22;53955;52.442;13.284;2022-12-18T08:43:09;4.30;43.50
67050;DHT22;53955;52.442;13.284;2022-12-18T08:45:54;-3275.60;59.40
67050;DHT22;53955;52.442;13.284;2022-12-18T08:48:22;0.20;0.20
67050;DHT22;53955;52.442;13.284;2022-12-18T08:50:54;0.20;0.20
67050;DHT22;53955;52.442;13.284;2022-12-18T08:53:20;0.20;0.20
67050;DHT22;53955;52.442;13.284;2022-12-18T08:55:47;0.20;0.20
67050;DHT22;53955;52.442;13.284;2022-12-18T08:58:13;0.20;0.20
67050;DHT22;53955;52.442;13.284;2022-12-18T09:00:40;0.20;0.20
67050;DHT22;53955;52.442;13.284;2022-12-18T09:03:11;0.20;0.20
67050;DHT22;53955;52.442;13.284;2022-12-18T09:05:39;0.20;0.20
67050;DHT22;53955;52.442;13.284;2022-12-18T09:08:06;0.20;0.20
67050;DHT22;53955;52.442;13.284;2022-12-18T09:10:32;0.20;0.20
67050;DHT22;53955;52.442;13.284;2022-12-18T09:12:59;0.20;0.20
67050;DHT22;53955;52.442;13.284;2022-12-18T09:15:25;0.20;0.20
67050;DHT22;53955;52.442;13.284;2022-12-18T09:17:52;0.20;0.20
67050;DHT22;53955;52.442;13.284;2022-12-18T09:20:19;0.20;0.20
67050;DHT22;53955;52.442;13.284;2022-12-18T09:22:47;0.20;0.20
67050;DHT22;53955;52.442;13.284;2022-12-18T09:25:14;0.20;0.20
67050;DHT22;53955;52.442;13.284;2022-12-18T09:27:40;0.20;0.20
67050;DHT22;53955;52.442;13.284;2022-12-18T09:30:08;0.20;0.20
67050;DHT22;53955;52.442;13.284;2022-12-18T09:32:35;0.20;0.20
67050;DHT22;53955;52.442;13.284;2022-12-18T09:35:01;0.20;0.20
67050;DHT22;53955;52.442;13.284;2022-12-18T09:37:28;0.20;0.20
67050;DHT22;53955;52.442;13.284;2022-12-18T09:39:55;0.20;0.20
67050;DHT22;53955;52.442;13.284;2022-12-18T09:42:22;0.20;0.20
67050;DHT22;53955;52.442;13.284;2022-12-18T09:44:50;0.20;0.20
67050;DHT22;53955;52.442;13.284;2022-12-18T09:47:21;0.20;0.20
67050;DHT22;53955;52.442;13.284;2022-12-18T09:49:51;0.20;0.20
67050;DHT22;53955;52.442;13.284;2022-12-18T09:52:23;0.20;0.20
67050;DHT22;53955;52.442;13.284;2022-12-18T09:54:53;0.20;0.20
67050;DHT22;53955;52.442;13.284;2022-12-18T09:57:24;0.20;0.20
67050;DHT22;53955;52.442;13.284;2022-12-18T09:59:54;0.20;0.20
67050;DHT22;53955;52.442;13.284;2022-12-18T10:02:23;0.20;0.20
67050;DHT22;53955;52.442;13.284;2022-12-18T10:05:03;0.20;0.20
67050;DHT22;53955;52.442;13.284;2022-12-18T10:07:41;0.20;0.20
67050;DHT22;53955;52.442;13.284;2022-12-18T10:10:16;0.20;0.20
67050;DHT22;53955;52.442;13.284;2022-12-18T10:12:53;0.20;0.20
67050;DHT22;53955;52.442;13.284;2022-12-18T10:15:25;0.20;0.20
67050;DHT22;53955;52.442;13.284;2022-12-18T10:18:02;0.20;0.20
67050;DHT22;53955;52.442;13.284;2022-12-18T10:20:38;0.20;0.20
67050;DHT22;53955;52.442;13.284;2022-12-18T10:23:12;0.20;0.20
67050;DHT22;53955;52.442;13.284;2022-12-18T10:25:50;0.20;0.20
67050;DHT22;53955;52.442;13.284;2022-12-18T10:28:19;0.20;0.20
67050;DHT22;53955;52.442;13.284;2022-12-18T10:30:47;0.20;0.20
67050;DHT22;53955;52.442;13.284;2022-12-18T10:33:18;0.20;0.20
67050;DHT22;53955;52.442;13.284;2022-12-18T10:35:47;0.20;0.20
67050;DHT22;53955;52.442;13.284;2022-12-18T10:38:23;0.20;0.20
67050;DHT22;53955;52.442;13.284;2022-12-18T10:40:53;0.20;0.20
67050;DHT22;53955;52.442;13.284;2022-12-18T10:43:24;0.20;0.20
67050;DHT22;53955;52.442;13.284;2022-12-18T10:46:12;0.20;0.20
67050;DHT22;53955;52.442;13.284;2022-12-18T10:48:47;0.20;0.20
67050;DHT22;53955;52.442;13.284;2022-12-18T10:51:20;0.20;0.20
67050;DHT22;53955;52.442;13.284;2022-12-18T10:53:52;0.20;0.20
67050;DHT22;53955;52.442;13.284;2022-12-18T10:56:20;0.20;0.20
67050;DHT22;53955;52.442;13.284;2022-12-18T10:58:56;0.20;0.20
67050;DHT22;53955;52.442;13.284;2022-12-18T11:01:23;0.20;0.20
67050;DHT22;53955;52.442;13.284;2022-12-18T11:03:59;0.20;0.20
67050;DHT22;53955;52.442;13.284;2022-12-18T11:06:26;0.20;0.20
67050;DHT22;53955;52.442;13.284;2022-12-18T11:08:58;0.20;0.20
67050;DHT22;53955;52.442;13.284;2022-12-18T11:11:26;0.20;0.20
67050;DHT22;53955;52.442;13.284;2022-12-18T11:13:59;0.20;0.20
67050;DHT22;53955;52.442;13.284;2022-12-18T11:16:27;0.20;0.20
67050;DHT22;53955;52.442;13.284;2022-12-18T11:19:13;0.20;0.20
67050;DHT22;53955;52.442;13.284;2022-12-18T11:21:41;0.20;0.20
67050;DHT22;53955;52.442;13.284;2022-12-18T11:24:17;0.20;0.20
67050;DHT22;53955;52.442;13.284;2022-12-18T11:26:45;0.20;0.20
67050;DHT22;53955;52.442;13.284;2022-12-18T11:29:16;0.20;0.20
67050;DHT22;53955;52.442;13.284;2022-12-18T11:31:43;0.20;0.20
67050;DHT22;53955;52.442;13.284;2022-12-18T11:34:12;0.20;0.20
67050;DHT22;53955;52.442;13.284;2022-12-18T11:36:43;0.20;0.20
67050;DHT22;53955;52.442;13.284;2022-12-18T11:39:15;0.20;0.20
67050;DHT22;53955;52.442;13.284;2022-12-18T11:41:48;0.20;0.20
67050;DHT22;53955;52.442;13.284;2022-12-18T11:44:42;0.20;0.20
67050;DHT22;53955;52.442;13.284;2022-12-18T11:47:16;0.20;0.20
67050;DHT22;53955;52.442;13.284;2022-12-18T11:49:48;0.20;0.20
67050;DHT22;53955;52.442;13.284;2022-12-18T11:52:18;0.20;0.20
67050;DHT22;53955;52.442;13.284;2022-12-18T11:54:50;0.20;0.20
67050;DHT22;53955;52.442;13.284;2022-12-18T11:57:25;0.20;0.20
67050;DHT22;53955;52.442;13.284;2022-12-18T12:00:02;0.20;0.20
67050;DHT22;53955;52.442;13.284;2022-12-18T12:02:40;0.20;0.20
67050;DHT22;53955;52.442;13.284;2022-12-18T12:05:20;0.20;0.20
67050;DHT22;53955;52.442;13.284;2022-12-18T12:07:57;0.20;0.20
67050;DHT22;53955;52.442;13.284;2022-12-18T12:10:35;0.20;0.20
67050;DHT22;53955;52.442;13.284;2022-12-18T12:13:17;0.20;0.20
67050;DHT22;53955;52.442;13.284;2022-12-18T12:15:55;0.20;0.20
67050;DHT22;53955;52.442;13.284;2022-12-18T12:18:29;0.20;0.20
67050;DHT22;53955;52.442;13.284;2022-12-18T12:21:05;0.20;0.20
67050;DHT22;53955;52.442;13.284;2022-12-18T12:23:41;0.20;0.20
67050;DHT22;53955;52.442;13.284;2022-12-18T12:26:12;0.20;0.20
67050;DHT22;53955;52.442;13.284;2022-12-18T12:29:00;0.20;0.20
67050;DHT22;53955;52.442;13.284;2022-12-18T12:31:42;0.20;0.20
67050;DHT22;53955;52.442;13.284;2022-12-18T12:34:17;0.20;0.20
67050;DHT22;53955;52.442;13.284;2022-12-18T12:36:54;0.20;0.20
67050;DHT22;53955;52.442;13.284;2022-12-18T12:39:27;0.20;0.20
67050;DHT22;53955;52.442;13.284;2022-12-18T12:41:56;0.20;0.20
67050;DHT22;53955;52.442;13.284;2022-12-18T12:44:43;0.20;0.20
67050;DHT22;53955;52.442;13.284;2022-12-18T12:47:16;0.20;0.20
67050;DHT22;53955;52.442;13.284;2022-12-18T12:49:44;0.20;0.20
67050;DHT22;53955;52.442;13.284;2022-12-18T12:52:16;0.20;0.20
67050;DHT22;53955;52.442;13.284;2022-12-18T12:54:44;0.20;0.20
67050;DHT22;53955;52.442;13.284;2022-12-18T12:57:15;0.20;0.20
67050;DHT22;53955;52.442;13.284;2022-12-18T12:59:46;0.20;0.20
67050;DHT22;53955;52.442;13.284;2022-12-18T13:02:20;0.20;0.20
67050;DHT22;53955;52.442;13.284;2022-12-18T13:04:54;0.20;0.20
67050;DHT22;53955;52.442;13.284;2022-12-18T13:07:27;0.20;0.20
67050;DHT22;53955;52.442;13.284;2022-12-18T13:10:24;0.20;0.20
67050;DHT22;53955;52.442;13.284;2022-12-18T13:12:55;0.20;0.20
67050;DHT22;53955;52.442;13.284;2022-12-18T13:15:23;0.20;0.20
67050;DHT22;53955;52.442;13.284;2022-12-18T13:18:05;0.20;0.20
67050;DHT22;53955;52.442;13.284;2022-12-18T13:20:34;0.20;0.20
67050;DHT22;53955;52.442;13.284;2022-12-18T13:23:04;0.20;0.20
67050;DHT22;53955;52.442;13.284;2022-12-18T13:25:45;0.20;0.20
67050;DHT22;53955;52.442;13.284;2022-12-18T13:28:14;0.20;0.20
67050;DHT22;53955;52.442;13.284;2022-12-18T13:30:53;0.20;0.20
67050;DHT22;53955;52.442;13.284;2022-12-18T13:33:42;0.20;0.20
67050;DHT22;53955;52.442;13.284;2022-12-18T13:36:23;0.20;0.20
67050;DHT22;53955;52.442;13.284;2022-12-18T13:39:11;0.20;0.20
67050;DHT22;53955;52.442;13.284;2022-12-18T13:41:37;0.20;0.20
67050;DHT22;53955;52.442;13.284;2022-12-18T13:44:11;0.20;0.20
67050;DHT22;53955;52.442;13.284;2022-12-18T13:46:43;5.20;45.80
67050;DHT22;53955;52.442;13.284;2022-12-18T13:49:21;-3276.60;61.70
67050;DHT22;53955;52.442;13.284;2022-12-18T13:51:50;-3276.30;62.90
67050;DHT22;53955;52.442;13.284;2022-12-18T13:54:20;-3276.10;63.80
67050;DHT22;53955;52.442;13.284;2022-12-18T13:56:48;-3276.10;64.90
67050;DHT22;53955;52.442;13.284;2022-12-18T13:59:18;-3276.10;65.80
67050;DHT22;53955;52.442;13.284;2022-12-18T14:01:49;-3276.20;65.90
67050;DHT22;53955;52.442;13.284;2022-12-18T14:04:22;-3276.30;65.50
67050;DHT22;53955;52.442;13.284;2022-12-18T14:06:51;-3276.10;64.50
67050;DHT22;53955;52.442;13.284;2022-12-18T14:09:22;-3275.80;66.00
67050;DHT22;53955;52.442;13.284;2022-12-18T14:11:50;-3275.80;65.00
67050;DHT22;53955;52.442;13.284;2022-12-18T14:14:18;-3275.90;64.70
67050;DHT22;53955;52.442;13.284;2022-12-18T14:16:46;-3275.70;66.30
67050;DHT22;53955;52.442;13.284;2022-12-18T14:19:15;0.20;0.20
67050;DHT22;53955;52.442;13.284;2022-12-18T14:21:47;0.20;0.20
67050;DHT22;53955;52.442;13.284;2022-12-18T14:24:16;0.20;0.20
67050;DHT22;53955;52.442;13.284;2022-12-18T14:26:43;0.20;0.20
67050;DHT22;53955;52.442;13.284;2022-12-18T14:29:22;0.20;0.20
67050;DHT22;53955;52.442;13.284;2022-12-18T14:32:06;0.20;0.20
67050;DHT22;53955;52.442;13.284;2022-12-18T14:34:33;0.20;0.20
67050;DHT22;53955;52.442;13.284;2022-12-18T14:37:01;0.20;0.20
67050;DHT22;53955;52.442;13.284;2022-12-18T14:39:28;0.20;0.20
67050;DHT22;53955;52.442;13.284;2022-12-18T14:41:54;0.20;0.20
67050;DHT22;53955;52.442;13.284;2022-12-18T14:44:21;0.20;0.20
67050;DHT22;53955;52.442;13.284;2022-12-18T14:46:49;0.20;0.20
67050;DHT22;53955;52.442;13.284;2022-12-18T14:49:22;0.20;0.20
67050;DHT22;53955;52.442;13.284;2022-12-18T14:51:50;0.20;0.20
67050;DHT22;53955;52.442;13.284;2022-12-18T14:54:20;0.20;0.20
67050;DHT22;53955;52.442;13.284;2022-12-18T14:56:48;0.20;0.20
67050;DHT22;53955;52.442;13.284;2022-12-18T14:59:17;0.20;0.20
67050;DHT22;53955;52.442;13.284;2022-12-18T15:01:48;0.20;0.20
67050;DHT22;53955;52.442;13.284;2022-12-18T15:04:26;0.20;0.20
67050;DHT22;53955;52.442;13.284;2022-12-18T15:07:07;0.20;0.20
67050;DHT22;53955;52.442;13.284;2022-12-18T15:09:37;0.20;0.20
67050;DHT22;53955;52.442;13.284;2022-12-18T15:12:05;0.20;0.20
67050;DHT22;53955;52.442;13.284;2022-12-18T15:14:34;0.20;0.20
67050;DHT22;53955;52.442;13.284;2022-12-18T15:17:03;0.20;0.20
67050;DHT22;53955;52.442;13.284;2022-12-18T15:19:35;0.20;0.20
67050;DHT22;53955;52.442;13.284;2022-12-18T15:22:04;0.20;0.20
67050;DHT22;53955;52.442;13.284;2022-12-18T15:24:32;0.20;0.20
67050;DHT22;53955;52.442;13.284;2022-12-18T15:27:00;0.20;0.20
67050;DHT22;53955;52.442;13.284;2022-12-18T15:29:27;0.20;0.20
67050;DHT22;53955;52.442;13.284;2022-12-18T15:32:01;0.20;0.20
67050;DHT22;53955;52.442;13.284;2022-12-18T15:34:29;0.20;0.20
67050;DHT22;53955;52.442;13.284;2022-12-18T15:36:55;0.20;0.20
67050;DHT22;53955;52.442;13.284;2022-12-18T15:39:22;0.20;0.20
67050;DHT22;53955;52.442;13.284;2022-12-18T15:41:49;0.20;0.20
67050;DHT22;53955;52.442;13.284;2022-12-18T15:44:35;0.20;0.20
67050;DHT22;53955;52.442;13.284;2022-12-18T15:47:01;0.20;0.20
67050;DHT22;53955;52.442;13.284;2022-12-18T15:49:28;0.20;0.20
67050;DHT22;53955;52.442;13.284;2022-12-18T15:51:58;0.20;0.20
67050;DHT22;53955;52.442;13.284;2022-12-18T15:54:25;0.20;0.20
67050;DHT22;53955;52.442;13.284;2022-12-18T15:57:08;0.20;0.20
67050;DHT22;53955;52.442;13.284;2022-12-18T15:59:53;0.20;0.20
67050;DHT22;53955;52.442;13.284;2022-12-18T16:02:21;0.20;0.20